Time;durP1;ratioP1;P1;durP2;ratioP2;P2;SDS_P1;SDS_P2;PMS_P1;PMS_P2;Temp;Humidity;BMP_temperature;BMP_pressure;BME280_temperature;BME280_humidity;BME280_pressure;Samples;Min_cycle;Max_cycle;Signal;HPM_P1;HPM_P2
2022/11/18 00:01:06;;;;;;;;;6.00;5.50;;;;;20.82;59.20;99008.00;5020972;28;45319;-51
2022/11/18 00:03:32;;;;;;;;;7.25;7.00;;;;;20.83;59.12;99011.50;5022228;28;45219;-54
2022/11/18 00:05:57;;;;;;;;;9.00;8.00;;;;;20.82;59.09;99012.44;5022049;28;45243;-47
2022/11/18 00:08:23;;;;;;;;;6.75;6.75;;;;;20.83;59.22;99024.75;5020229;28;62948;-50
2022/11/18 00:10:49;;;;;;;;;7.00;6.00;;;;;20.82;59.20;99015.09;5004125;28;46307;-48
2022/11/18 00:16:08;;;;;;;;;9.00;7.75;;;;;20.81;58.88;99035.44;5022143;28;45476;-47
2022/11/18 00:18:33;;;;;;;;;12.25;8.25;;;;;20.81;59.20;99040.75;5020503;28;45268;-48
2022/11/18 00:21:09;;;;;;;;;9.00;7.00;;;;;20.81;58.88;99042.56;5021034;28;60993;-48
2022/11/18 00:23:35;;;;;;;;;9.00;7.25;;;;;20.81;59.12;99046.06;5021950;28;45419;-50
2022/11/18 00:26:05;;;;;;;;;10.25;8.00;;;;;20.81;58.98;99045.22;5021967;28;45404;-48
2022/11/18 00:28:30;;;;;;;;;6.50;6.50;;;;;20.81;59.27;99053.16;5021860;28;45335;-51
2022/11/18 00:31:06;;;;;;;;;12.25;8.00;;;;;20.80;59.36;99056.75;5020595;28;46217;-51
2022/11/18 00:33:32;;;;;;;;;6.00;6.00;;;;;20.80;59.39;99062.91;5021596;28;45436;-47
2022/11/18 00:35:58;;;;;;;;;6.75;6.25;;;;;20.80;59.26;99065.56;5020379;28;45324;-49
2022/11/18 00:38:23;;;;;;;;;11.50;8.75;;;;;20.80;58.99;99076.16;4986855;28;56493;-51
2022/11/18 00:40:49;;;;;;;;;10.00;7.00;;;;;20.80;59.11;99073.53;5003850;28;46120;-53
2022/11/18 00:43:14;;;;;;;;;9.75;6.00;;;;;20.78;58.80;99083.38;5002784;28;45290;-54
2022/11/18 00:45:41;;;;;;;;;7.50;7.00;;;;;20.79;59.21;99076.28;4987494;28;45426;-54
2022/11/18 00:48:07;;;;;;;;;8.00;6.00;;;;;20.79;58.97;99084.22;5020151;28;46065;-51
2022/11/18 00:50:32;;;;;;;;;7.50;7.50;;;;;20.79;59.13;99093.03;5019106;28;69592;-48
2022/11/18 00:52:57;;;;;;;;;7.25;6.00;;;;;20.80;59.03;99093.88;5021277;28;45362;-53
2022/11/18 00:55:23;;;;;;;;;9.00;6.50;;;;;20.78;58.96;99096.63;5019927;28;48687;-52
2022/11/18 00:57:48;;;;;;;;;9.75;6.00;;;;;20.79;58.53;99094.84;5019649;28;54278;-58
2022/11/18 01:00:14;;;;;;;;;8.50;7.50;;;;;20.79;58.90;99100.13;5021107;28;46060;-53
2022/11/18 01:02:39;;;;;;;;;6.50;6.00;;;;;20.78;58.61;99099.28;5021269;28;45240;-50
2022/11/18 01:05:05;;;;;;;;;6.00;6.00;;;;;20.78;58.61;99109.88;5019231;28;63772;-51
2022/11/18 01:07:30;;;;;;;;;7.50;6.50;;;;;20.78;58.53;99103.72;5019734;28;45612;-51
2022/11/18 01:09:56;;;;;;;;;9.25;8.00;;;;;20.78;58.68;99103.72;5021213;28;45273;-51
2022/11/18 01:15:06;;;;;;;;;5.50;5.50;;;;;20.77;58.69;99107.31;5021386;28;45223;-49
2022/11/18 01:17:32;;;;;;;;;5.75;5.00;;;;;20.77;58.47;99105.53;5020891;28;45463;-50
2022/11/18 01:19:57;;;;;;;;;8.00;7.00;;;;;20.76;58.30;99114.44;5020684;28;45307;-48
2022/11/18 01:22:23;;;;;;;;;5.00;5.00;;;;;20.77;58.74;99118.78;5020893;28;45165;-55
2022/11/18 01:24:48;;;;;;;;;5.50;5.00;;;;;20.77;58.57;99110.84;5021069;28;45309;-51
2022/11/18 01:27:13;;;;;;;;;5.75;5.00;;;;;20.77;58.61;99115.28;5019659;28;45267;-49
2022/11/18 01:29:39;;;;;;;;;7.25;6.75;;;;;20.77;58.57;99125.88;5019922;28;73019;-48
2022/11/18 01:32:04;;;;;;;;;7.25;6.25;;;;;20.76;58.80;99109.13;5018529;28;68042;-51
2022/11/18 01:34:30;;;;;;;;;8.25;8.25;;;;;20.76;58.79;99119.72;5019855;28;62926;-49
2022/11/18 01:36:56;;;;;;;;;7.75;6.00;;;;;20.76;58.87;99119.72;5020298;28;51884;-49
2022/11/18 01:39:22;;;;;;;;;6.50;6.00;;;;;20.76;58.37;99127.69;5020739;28;46222;-51
2022/11/18 01:41:47;;;;;;;;;7.50;6.75;;;;;20.76;58.58;99124.16;5019917;28;46706;-51
2022/11/18 01:44:55;;;;;;;;;7.25;6.00;;;;;20.76;58.56;99130.34;5020521;28;48545;-48
2022/11/18 01:47:21;;;;;;;;;6.00;5.00;;;;;20.76;58.34;99132.09;5019256;28;45277;-52
2022/11/18 01:49:46;;;;;;;;;5.00;5.00;;;;;20.74;58.48;99136.66;5019765;28;57375;-51
2022/11/18 01:52:12;;;;;;;;;4.50;4.50;;;;;20.75;58.73;99143.66;5002705;28;45320;-48
2022/11/18 01:54:39;;;;;;;;;5.50;5.00;;;;;20.73;58.47;99149.06;4986275;28;45320;-52
2022/11/18 01:57:08;;;;;;;;;6.25;6.25;;;;;20.74;58.67;99147.25;5019295;28;45331;-51
2022/11/18 01:59:35;;;;;;;;;8.00;5.75;;;;;20.74;58.33;99150.75;5018923;28;46116;-49
2022/11/18 02:02:01;;;;;;;;;5.25;5.25;;;;;20.73;58.17;99146.41;5002904;28;45430;-50
2022/11/18 02:04:27;;;;;;;;;7.00;6.75;;;;;20.73;58.36;99154.34;5002303;28;45514;-49
2022/11/18 02:06:52;;;;;;;;;5.00;5.00;;;;;20.74;58.42;99156.06;5020040;28;58235;-52
2022/11/18 02:09:17;;;;;;;;;6.75;5.00;;;;;20.74;58.33;99163.16;5018274;28;62064;-50
2022/11/18 02:11:55;;;;;;;;;6.00;6.00;;;;;20.74;58.49;99160.50;5019862;28;57537;-49
2022/11/18 02:14:31;;;;;;;;;7.75;5.00;;;;;20.74;58.39;99163.16;5018943;28;45537;-49
2022/11/18 02:17:03;;;;;;;;;5.00;5.00;;;;;20.72;58.35;99163.25;5019187;28;45342;-51
2022/11/18 02:19:48;;;;;;;;;6.00;5.00;;;;;20.72;58.21;99165.06;5001998;28;46759;-49
2022/11/18 02:22:32;;;;;;;;;5.00;5.00;;;;;20.72;58.46;99178.31;5003762;28;45312;-50
2022/11/18 02:25:16;;;;;;;;;6.75;6.00;;;;;20.72;58.44;99181.81;5020164;28;45303;-51
2022/11/18 02:27:44;;;;;;;;;4.00;3.75;;;;;20.72;58.62;99168.56;5020064;28;45469;-49
2022/11/18 02:30:11;;;;;;;;;5.00;5.00;;;;;20.71;58.57;99182.75;5020062;28;45221;-52
2022/11/18 02:32:51;;;;;;;;;6.50;5.00;;;;;20.72;58.21;99173.00;5002299;28;45343;-50
2022/11/18 02:35:39;;;;;;;;;6.75;5.50;;;;;20.71;58.26;99180.13;5001657;28;48083;-49
2022/11/18 02:38:08;;;;;;;;;5.00;3.75;;;;;20.71;58.20;99190.72;4985939;28;45406;-50
2022/11/18 02:40:45;;;;;;;;;7.00;6.00;;;;;20.71;58.11;99187.22;5018808;28;45359;-48
2022/11/18 02:43:20;;;;;;;;;7.00;5.25;;;;;20.70;58.19;99189.00;5003483;28;45269;-48
2022/11/18 02:45:48;;;;;;;;;4.50;3.00;;;;;20.70;58.21;99194.31;5018997;28;45323;-49
2022/11/18 02:48:14;;;;;;;;;4.00;4.00;;;;;20.70;57.99;99198.75;5001814;28;45484;-50
2022/11/18 02:50:40;;;;;;;;;4.75;3.25;;;;;20.70;58.21;99199.63;5019368;28;45991;-49
2022/11/18 02:53:06;;;;;;;;;8.50;4.75;;;;;20.71;58.21;99203.13;5001994;28;46199;-50
2022/11/18 02:55:33;;;;;;;;;4.00;4.00;;;;;20.69;57.98;99199.72;5001565;28;57729;-48
2022/11/18 02:57:58;;;;;;;;;5.00;4.00;;;;;20.70;58.25;99199.63;4985500;28;45368;-52
2022/11/18 03:00:24;;;;;;;;;4.00;4.00;;;;;20.70;58.01;99210.22;5001641;28;45402;-50
2022/11/18 03:02:49;;;;;;;;;5.00;4.50;;;;;20.69;58.14;99205.88;5019509;28;45294;-52
2022/11/18 03:05:22;;;;;;;;;3.00;3.00;;;;;20.69;57.94;99207.66;5019325;28;45335;-52
2022/11/18 03:07:50;;;;;;;;;5.00;5.00;;;;;20.69;57.76;99208.53;5020438;28;45420;-51
2022/11/18 03:10:16;;;;;;;;;4.75;4.75;;;;;20.68;57.80;99216.56;5021774;28;45413;-49
2022/11/18 03:12:58;;;;;;;;;4.50;4.50;;;;;20.69;57.90;99226.22;5005037;28;45307;-53
2022/11/18 03:15:40;;;;;;;;;3.50;3.25;;;;;20.70;57.75;99219.97;5006773;28;45304;-52
2022/11/18 03:18:19;;;;;;;;;4.00;4.00;;;;;20.70;57.64;99227.94;5005962;28;45378;-49
2022/11/18 03:21:00;;;;;;;;;7.75;4.75;;;;;20.69;57.94;99220.91;5021282;28;47159;-51
2022/11/18 03:23:33;;;;;;;;;4.50;4.00;;;;;20.69;58.01;99227.06;5021674;28;45580;-51
2022/11/18 03:26:03;;;;;;;;;3.25;3.25;;;;;20.69;57.73;99227.06;5005545;28;45447;-51
2022/11/18 03:28:52;;;;;;;;;3.75;3.75;;;;;20.69;58.10;99229.72;5021527;28;45294;-49
2022/11/18 03:31:24;;;;;;;;;4.00;4.00;;;;;20.70;57.96;99230.56;5022805;28;46542;-52
2022/11/18 03:34:05;;;;;;;;;4.00;4.00;;;;;20.69;58.05;99239.47;5021156;28;45346;-55
2022/11/18 03:36:33;;;;;;;;;4.00;3.00;;;;;20.69;57.88;99237.69;4988383;28;45343;-51
2022/11/18 03:38:59;;;;;;;;;5.50;4.00;;;;;20.70;57.60;99241.19;5005259;28;45324;-52
2022/11/18 03:41:25;;;;;;;;;6.00;4.25;;;;;20.70;57.61;99242.03;5022283;28;46174;-51
2022/11/18 03:43:59;;;;;;;;;3.25;3.25;;;;;20.69;57.73;99234.19;5004876;28;45342;-48
2022/11/18 03:46:59;;;;;;;;;6.00;3.75;;;;;20.69;57.86;99244.78;5005128;28;45389;-52
2022/11/18 03:49:51;;;;;;;;;5.75;4.25;;;;;20.68;57.93;99248.38;5020851;28;45316;-53
2022/11/18 03:52:18;;;;;;;;;6.00;4.50;;;;;20.68;57.76;99253.69;5022261;28;53612;-50
2022/11/18 03:54:44;;;;;;;;;5.50;4.50;;;;;20.68;57.80;99264.28;5004653;28;45324;-53
2022/11/18 03:57:21;;;;;;;;;4.00;4.00;;;;;20.67;57.52;99263.41;5020757;28;55445;-53
2022/11/18 04:00:03;;;;;;;;;5.00;5.00;;;;;20.66;57.60;99271.44;5020849;28;45432;-52
2022/11/18 04:02:28;;;;;;;;;3.50;3.50;;;;;20.67;57.46;99276.66;5020707;28;47271;-50
2022/11/18 04:04:54;;;;;;;;;4.00;4.00;;;;;20.67;57.69;99276.66;5019803;28;70421;-49
2022/11/18 04:07:45;;;;;;;;;4.50;3.50;;;;;20.67;57.67;99281.94;5004437;28;45182;-50
2022/11/18 04:10:15;;;;;;;;;6.00;4.00;;;;;20.66;57.55;99282.91;5020715;28;48445;-52
2022/11/18 04:12:57;;;;;;;;;3.25;3.25;;;;;20.67;57.71;99283.75;5020825;28;46090;-51
2022/11/18 04:15:23;;;;;;;;;5.00;4.25;;;;;20.67;57.62;99289.91;5022046;28;45303;-52
2022/11/18 04:17:49;;;;;;;;;3.00;3.00;;;;;20.67;57.63;99303.16;5021410;28;45286;-52
2022/11/18 04:20:19;;;;;;;;;4.00;4.00;;;;;20.67;57.69;99305.81;5020795;28;51838;-50
2022/11/18 04:22:44;;;;;;;;;6.00;4.50;;;;;20.67;57.34;99308.47;5004432;28;46240;-51
2022/11/18 04:25:10;;;;;;;;;4.75;4.00;;;;;20.65;57.63;99310.34;5020520;28;45358;-52
2022/11/18 04:27:35;;;;;;;;;4.00;4.00;;;;;20.66;57.26;99319.16;5021849;28;51547;-52
2022/11/18 04:30:00;;;;;;;;;6.75;5.00;;;;;20.66;57.33;99313.84;5021396;28;58079;-52
2022/11/18 04:32:26;;;;;;;;;3.75;3.75;;;;;20.65;57.25;99320.97;5003883;28;47964;-53
2022/11/18 04:34:51;;;;;;;;;5.00;5.00;;;;;20.65;57.39;99325.41;5021168;28;47163;-51
2022/11/18 04:37:17;;;;;;;;;3.25;3.00;;;;;20.65;57.64;99326.25;5019912;28;60459;-51
2022/11/18 04:39:42;;;;;;;;;6.25;4.25;;;;;20.67;57.72;99331.47;5019414;28;72079;-49
2022/11/18 04:42:07;;;;;;;;;5.50;5.50;;;;;20.65;57.33;99328.91;5020416;28;47227;-50
2022/11/18 04:44:33;;;;;;;;;4.00;3.00;;;;;20.65;57.41;99328.91;5004091;28;45304;-47
2022/11/18 04:47:00;;;;;;;;;4.25;3.00;;;;;20.64;57.58;99332.50;5021626;28;45219;-52
2022/11/18 04:49:25;;;;;;;;;2.75;2.75;;;;;20.65;57.80;99330.72;5021254;28;45661;-52
2022/11/18 04:51:51;;;;;;;;;2.00;2.00;;;;;20.63;57.96;99336.09;5021370;28;45321;-53
2022/11/18 04:54:17;;;;;;;;;3.00;3.00;;;;;20.63;57.76;99330.78;5021366;28;45361;-49
2022/11/18 04:56:42;;;;;;;;;4.00;4.00;;;;;20.65;57.53;99342.16;5021301;28;45299;-48
2022/11/18 04:59:07;;;;;;;;;4.75;4.25;;;;;20.64;57.44;99343.09;5003532;28;45316;-51
2022/11/18 05:01:33;;;;;;;;;3.00;3.00;;;;;20.66;57.54;99353.63;5020948;28;46025;-48
2022/11/18 05:03:59;;;;;;;;;2.00;2.00;;;;;20.65;57.80;99344.81;5019699;28;45311;-48
2022/11/18 05:06:25;;;;;;;;;3.75;3.75;;;;;20.66;57.74;99350.97;5003591;28;45399;-50
2022/11/18 05:08:50;;;;;;;;;4.00;4.00;;;;;20.65;57.66;99350.13;5020358;28;66762;-49
2022/11/18 05:14:00;;;;;;;;;4.25;3.00;;;;;20.66;57.80;99349.19;5021125;28;45315;-51
2022/11/18 05:16:25;;;;;;;;;5.75;5.00;;;;;20.68;57.86;99346.47;5020579;28;59110;-46
2022/11/18 05:18:50;;;;;;;;;2.50;2.50;;;;;20.67;57.85;99348.22;5019700;28;45247;-52
2022/11/18 05:21:16;;;;;;;;;3.00;3.00;;;;;20.68;57.63;99352.63;5020746;28;46079;-49
2022/11/18 05:23:42;;;;;;;;;5.50;3.25;;;;;20.69;57.90;99354.34;5019610;28;45681;-50
2022/11/18 05:26:07;;;;;;;;;3.00;2.50;;;;;20.70;57.91;99363.13;5003163;28;45548;-50
2022/11/18 05:28:33;;;;;;;;;3.50;3.25;;;;;20.70;57.08;99358.69;5019516;28;45258;-51
2022/11/18 05:30:58;;;;;;;;;8.25;4.50;;;;;20.69;57.45;99367.59;5018660;28;59342;-49
2022/11/18 05:33:24;;;;;;;;;3.25;3.25;;;;;20.70;57.90;99371.94;5018852;28;56106;-50
2022/11/18 05:35:49;;;;;;;;;6.25;4.00;;;;;20.70;57.89;99366.66;5019251;28;49734;-48
2022/11/18 05:38:15;;;;;;;;;2.50;2.00;;;;;20.71;57.74;99376.31;5018550;28;68934;-52
2022/11/18 05:40:43;;;;;;;;;4.00;4.00;;;;;20.71;57.84;99371.00;5002827;28;47210;-47
2022/11/18 05:43:12;;;;;;;;;6.50;4.00;;;;;20.72;57.64;99378.00;5020627;28;45235;-50
2022/11/18 05:45:38;;;;;;;;;3.50;2.50;;;;;20.73;57.73;99378.88;5019587;28;45308;-50
2022/11/18 05:48:04;;;;;;;;;4.75;4.75;;;;;20.73;57.57;99374.41;5020428;28;45307;-51
2022/11/18 05:50:30;;;;;;;;;2.00;2.00;;;;;20.74;57.51;99385.88;5019166;28;45354;-51
2022/11/18 05:52:56;;;;;;;;;3.00;3.00;;;;;20.74;57.57;99384.09;5019209;28;46164;-48
2022/11/18 05:55:21;;;;;;;;;4.00;2.50;;;;;20.75;57.18;99377.84;5019439;28;45370;-52
2022/11/18 05:57:47;;;;;;;;;6.50;4.25;;;;;20.75;57.41;99387.59;5020412;28;45387;-52
2022/11/18 06:00:13;;;;;;;;;4.25;3.00;;;;;20.74;57.46;99397.34;5018148;28;69319;-50
2022/11/18 06:02:38;;;;;;;;;3.75;3.00;;;;;20.74;57.30;99400.00;5020348;28;45330;-47
2022/11/18 06:05:04;;;;;;;;;2.75;2.50;;;;;20.76;57.44;99399.91;5002388;28;45298;-49
2022/11/18 06:07:33;;;;;;;;;2.00;2.00;;;;;20.76;57.47;99400.78;5020073;28;45323;-48
2022/11/18 06:09:59;;;;;;;;;3.75;3.00;;;;;20.76;57.11;99400.78;5018997;28;47371;-53
2022/11/18 06:12:27;;;;;;;;;5.25;4.00;;;;;20.77;57.10;99406.94;5002331;28;45243;-52
2022/11/18 06:14:56;;;;;;;;;3.50;3.00;;;;;20.76;57.18;99414.03;5020446;28;45461;-52
2022/11/18 06:17:24;;;;;;;;;3.00;3.00;;;;;20.76;56.97;99411.41;5017610;28;45405;-51
2022/11/18 06:19:49;;;;;;;;;3.25;3.00;;;;;20.76;56.92;99422.00;4983428;28;46267;-54
2022/11/18 06:22:14;;;;;;;;;4.00;2.00;;;;;20.77;56.96;99426.38;5018126;28;45273;-50
2022/11/18 06:24:40;;;;;;;;;3.00;3.00;;;;;20.77;57.17;99429.00;5001760;28;58291;-54
2022/11/18 06:27:06;;;;;;;;;2.75;2.50;;;;;20.78;56.84;99435.16;5018602;28;45445;-51
2022/11/18 06:29:31;;;;;;;;;1.75;1.75;;;;;20.78;57.15;99441.31;5019315;28;46062;-51
2022/11/18 06:31:57;;;;;;;;;4.50;3.00;;;;;20.79;56.95;99444.84;5018357;28;45337;-52
2022/11/18 06:34:22;;;;;;;;;4.50;3.00;;;;;20.81;56.81;99445.59;5019805;28;45291;-49
2022/11/18 06:36:47;;;;;;;;;2.00;2.00;;;;;20.80;56.69;99447.41;5019044;28;45411;-49
2022/11/18 06:39:13;;;;;;;;;3.75;2.50;;;;;20.81;56.96;99445.59;5018298;28;65746;-52
2022/11/18 06:41:38;;;;;;;;;3.50;2.75;;;;;20.80;57.31;99447.41;5002361;28;45318;-54
2022/11/18 06:44:03;;;;;;;;;6.50;4.00;;;;;20.81;57.05;99450.91;5021519;28;65115;-51
2022/11/18 06:49:13;;;;;;;;;4.00;3.25;;;;;20.82;57.27;99468.53;5021680;28;46308;-52
2022/11/18 06:51:39;;;;;;;;;2.50;2.50;;;;;20.83;56.96;99470.25;5005277;28;46371;-50
2022/11/18 06:54:04;;;;;;;;;2.00;2.00;;;;;20.84;57.18;99471.94;5021943;28;45520;-51
2022/11/18 06:56:30;;;;;;;;;2.75;2.75;;;;;20.84;57.41;99472.81;5022107;28;45454;-53
2022/11/18 06:58:56;;;;;;;;;2.50;2.50;;;;;20.85;57.40;99471.91;5005030;28;46423;-51
2022/11/18 07:01:26;;;;;;;;;4.50;3.00;;;;;20.85;57.07;99479.84;5021743;28;45251;-50
2022/11/18 07:03:51;;;;;;;;;3.75;2.50;;;;;20.86;57.49;99480.69;5022919;28;45531;-50
2022/11/18 07:06:21;;;;;;;;;3.00;3.00;;;;;20.86;57.24;99484.22;5021567;28;45428;-53
2022/11/18 07:08:47;;;;;;;;;3.00;2.00;;;;;20.87;57.16;99483.28;5022782;28;47269;-52
2022/11/18 07:11:14;;;;;;;;;4.25;3.00;;;;;20.89;57.01;99496.44;5023096;28;45280;-53
2022/11/18 07:13:39;;;;;;;;;6.00;4.25;;;;;20.88;57.46;99500.88;5023254;28;45513;-53
2022/11/18 07:16:06;;;;;;;;;4.00;4.00;;;;;20.88;57.30;99506.19;5021778;28;45535;-53
2022/11/18 07:18:32;;;;;;;;;1.00;1.00;;;;;20.90;57.50;99516.72;5021400;28;46553;-48
2022/11/18 07:21:01;;;;;;;;;5.25;3.00;;;;;20.89;57.22;99515.88;5004904;28;45475;-50
2022/11/18 07:23:27;;;;;;;;;4.50;3.50;;;;;20.90;57.36;99522.03;5022971;28;45288;-50
2022/11/18 07:25:54;;;;;;;;;3.00;3.00;;;;;20.89;57.22;99528.28;5021385;28;45241;-49
2022/11/18 07:28:19;;;;;;;;;4.00;2.50;;;;;20.89;57.37;99531.78;5022608;28;45263;-49
2022/11/18 07:30:44;;;;;;;;;4.00;3.75;;;;;20.89;57.18;99525.63;5021935;28;64409;-51
2022/11/18 07:33:10;;;;;;;;;4.00;3.00;;;;;20.89;57.16;99521.16;5022208;28;51541;-51
2022/11/18 07:35:35;;;;;;;;;7.00;4.00;;;;;20.90;57.12;99529.97;5022516;28;45271;-50
2022/11/18 07:38:00;;;;;;;;;5.25;3.00;;;;;20.91;57.41;99528.19;5020685;28;64631;-52
2022/11/18 07:40:26;;;;;;;;;4.25;4.25;;;;;20.91;57.24;99525.53;5002860;28;45278;-51
2022/11/18 07:42:52;;;;;;;;;3.50;3.00;;;;;20.92;57.19;99528.09;5019822;28;45580;-55
2022/11/18 07:45:18;;;;;;;;;5.00;3.00;;;;;20.92;57.49;99533.41;5019642;28;46620;-55
2022/11/18 07:47:43;;;;;;;;;5.75;4.00;;;;;20.94;57.25;99531.53;5021680;28;58485;-56
2022/11/18 07:50:08;;;;;;;;;3.25;2.25;;;;;20.96;57.78;99534.13;5018893;28;58297;-56
2022/11/18 07:52:34;;;;;;;;;5.25;3.25;;;;;20.96;57.41;99542.06;5020594;28;53111;-58
2022/11/18 07:54:59;;;;;;;;;2.25;2.25;;;;;20.96;57.73;99542.06;4987674;28;45615;-55
2022/11/18 07:57:25;;;;;;;;;4.75;4.75;;;;;20.98;57.73;99537.53;5003835;28;58306;-54
2022/11/18 07:59:50;;;;;;;;;3.25;2.50;;;;;20.98;57.74;99545.50;5003115;28;45401;-53
2022/11/18 08:02:16;;;;;;;;;5.00;4.75;;;;;20.99;57.34;99556.03;5018522;28;52773;-51
2022/11/18 08:04:41;;;;;;;;;3.75;3.75;;;;;20.99;57.51;99558.66;5018120;28;66666;-49
2022/11/18 08:07:08;;;;;;;;;6.75;4.00;;;;;20.99;57.60;99571.94;5015902;28;56770;-52
2022/11/18 08:09:34;;;;;;;;;4.25;3.50;;;;;21.01;57.52;99574.50;5020421;28;46943;-50
2022/11/18 08:11:59;;;;;;;;;5.00;5.00;;;;;21.01;57.49;99575.34;5021111;28;59702;-51
2022/11/18 08:14:26;;;;;;;;;7.00;6.00;;;;;21.01;57.56;99585.13;5019866;28;53870;-50
2022/11/18 08:16:51;;;;;;;;;5.00;3.00;;;;;21.01;57.64;99585.97;5020262;28;47722;-51
2022/11/18 08:19:16;;;;;;;;;1.75;1.75;;;;;21.03;57.41;99588.56;5017863;28;66484;-52
2022/11/18 08:21:42;;;;;;;;;6.75;4.25;;;;;21.05;57.79;99586.69;5004106;28;45332;-49
2022/11/18 08:24:08;;;;;;;;;5.00;3.25;;;;;21.04;57.71;99585.81;5003317;28;45503;-52
2022/11/18 08:26:33;;;;;;;;;4.25;4.25;;;;;21.07;57.87;99595.41;5003865;28;46068;-51
2022/11/18 08:28:59;;;;;;;;;5.00;4.00;;;;;21.08;57.66;99591.81;4999090;28;60513;-51
2022/11/18 08:31:26;;;;;;;;;5.00;5.00;;;;;21.07;57.38;99595.41;5020045;28;54382;-47
2022/11/18 08:33:58;;;;;;;;;7.25;6.25;;;;;21.08;57.60;99602.44;5003469;28;45510;-51
2022/11/18 08:36:25;;;;;;;;;5.25;4.00;;;;;21.08;57.78;99610.38;5019919;28;46441;-52
2022/11/18 08:38:50;;;;;;;;;7.25;5.50;;;;;21.08;57.45;99611.25;5006996;28;45399;-52
2022/11/18 08:41:36;;;;;;;;;4.00;3.00;;;;;21.08;57.20;99591.81;5020058;28;45497;-51
2022/11/18 08:44:01;;;;;;;;;6.00;4.00;;;;;21.08;56.96;99603.28;4995319;28;45555;-50
2022/11/18 08:46:27;;;;;;;;;5.00;3.50;;;;;21.06;56.39;99599.88;5019870;28;47118;-50
2022/11/18 08:48:53;;;;;;;;;5.50;3.75;;;;;21.08;56.49;99607.75;5002626;28;45910;-51
2022/11/18 08:51:18;;;;;;;;;5.00;3.00;;;;;21.09;56.28;99601.50;5019882;28;45747;-45
2022/11/18 08:53:43;;;;;;;;;5.75;4.50;;;;;21.12;56.23;99598.69;5016643;28;48559;-50
2022/11/18 08:56:17;;;;;;;;;4.00;3.00;;;;;21.13;56.43;99598.63;5032377;28;47553;-47
2022/11/18 08:58:42;;;;;;;;;6.25;3.50;;;;;21.13;55.90;99611.88;5018548;28;45897;-46
2022/11/18 09:01:08;;;;;;;;;4.00;3.00;;;;;21.13;56.29;99609.22;5021508;28;45280;-50
2022/11/18 09:03:34;;;;;;;;;2.75;2.00;;;;;21.13;55.83;99614.53;5019642;28;45264;-50
2022/11/18 09:06:08;;;;;;;;;4.00;3.75;;;;;21.12;56.52;99606.66;5020069;28;45388;-46
2022/11/18 09:08:34;;;;;;;;;3.75;3.75;;;;;21.13;56.07;99611.03;5021012;28;45177;-46
2022/11/18 09:11:10;;;;;;;;;4.25;3.00;;;;;21.12;55.93;99615.47;5021278;28;45275;-47
2022/11/18 09:13:36;;;;;;;;;5.25;4.00;;;;;21.12;56.22;99614.63;4995399;28;46173;-47
2022/11/18 09:16:01;;;;;;;;;3.50;3.50;;;;;21.11;55.88;99619.06;5019252;28;47205;-49
2022/11/18 09:18:26;;;;;;;;;6.00;4.75;;;;;21.11;56.24;99620.84;5019429;28;45257;-49
2022/11/18 09:20:59;;;;;;;;;5.75;5.00;;;;;21.11;56.18;99621.72;5018904;28;45305;-52
2022/11/18 09:23:25;;;;;;;;;5.50;3.50;;;;;21.14;56.07;99626.00;5021453;28;45528;-45
2022/11/18 09:26:01;;;;;;;;;3.25;3.00;;;;;21.14;56.25;99631.31;5019366;28;45403;-50
2022/11/18 09:28:26;;;;;;;;;5.25;5.00;;;;;21.14;56.02;99628.66;5013106;28;45391;-48
2022/11/18 09:30:52;;;;;;;;;8.50;6.00;;;;;21.13;56.14;99633.09;5019579;28;45764;-47
2022/11/18 09:33:17;;;;;;;;;8.00;5.00;;;;;21.13;56.25;99635.75;5018294;28;70277;-52
2022/11/18 09:35:43;;;;;;;;;8.50;5.00;;;;;21.13;56.17;99630.44;5020346;28;45345;-51
2022/11/18 09:38:08;;;;;;;;;9.50;5.50;;;;;21.14;56.30;99639.28;5019037;28;45450;-49
2022/11/18 09:40:38;;;;;;;;;8.00;5.00;;;;;21.14;56.40;99631.31;5002137;28;45651;-48
2022/11/18 09:43:37;;;;;;;;;8.00;7.00;;;;;21.14;56.75;99639.28;5019340;28;45271;-48
2022/11/18 09:46:19;;;;;;;;;5.75;5.75;;;;;21.14;56.47;99639.28;4999272;28;48216;-47
2022/11/18 09:51:29;;;;;;;;;9.25;6.75;;;;;21.16;56.54;99648.00;5019762;28;45332;-52
2022/11/18 09:53:54;;;;;;;;;6.00;5.00;;;;;21.16;56.80;99642.69;5019574;28;45301;-50
2022/11/18 09:56:19;;;;;;;;;8.50;7.00;;;;;21.16;56.65;99648.00;5018793;28;49663;-52
2022/11/18 09:58:45;;;;;;;;;8.25;7.00;;;;;21.17;56.47;99639.09;5001929;28;70838;-46
2022/11/18 10:01:12;;;;;;;;;8.00;7.50;;;;;21.16;56.09;99643.53;5020576;28;45372;-49
2022/11/18 10:03:38;;;;;;;;;11.25;8.00;;;;;21.16;56.55;99648.84;5018869;28;45549;-48
2022/11/18 10:06:05;;;;;;;;;9.50;9.00;;;;;21.17;56.59;99655.00;5017781;28;65316;-50
2022/11/18 10:08:32;;;;;;;;;10.25;8.25;;;;;21.18;56.64;99652.28;5020290;28;45281;-51
2022/11/18 10:11:00;;;;;;;;;6.00;5.75;;;;;21.20;56.99;99654.00;5020334;28;45219;-49
2022/11/18 10:13:47;;;;;;;;;10.75;7.25;;;;;21.20;56.90;99668.16;5020221;28;45482;-50
2022/11/18 10:16:42;;;;;;;;;12.25;10.00;;;;;21.20;56.65;99660.19;5018642;28;45485;-52
2022/11/18 10:19:07;;;;;;;;;9.75;8.50;;;;;21.22;56.80;99657.44;5019465;28;45583;-48
2022/11/18 10:21:55;;;;;;;;;12.25;8.75;;;;;21.23;56.82;99659.16;5019808;28;45339;-48
2022/11/18 10:24:23;;;;;;;;;12.50;7.00;;;;;21.22;56.94;99663.59;5008261;28;45282;-52
2022/11/18 10:26:56;;;;;;;;;9.25;7.50;;;;;21.22;56.74;99662.75;5000377;28;46336;-50
2022/11/18 10:29:22;;;;;;;;;7.25;6.75;;;;;21.22;56.66;99660.09;5019760;28;45302;-51
2022/11/18 10:32:07;;;;;;;;;7.50;5.00;;;;;21.23;54.13;99669.78;5018344;28;45343;-53
2022/11/18 10:34:33;;;;;;;;;4.75;4.75;;;;;20.97;52.42;99668.44;5018266;28;45510;-52
2022/11/18 10:37:04;;;;;;;;;6.50;5.25;;;;;20.65;51.54;99670.91;5018101;28;45316;-51
2022/11/18 10:39:30;;;;;;;;;5.00;4.00;;;;;20.33;51.35;99669.81;5019459;28;45251;-48
2022/11/18 10:42:05;;;;;;;;;3.00;3.00;;;;;20.07;51.81;99671.03;5019360;28;46226;-49
2022/11/18 10:44:34;;;;;;;;;5.25;3.50;;;;;19.90;51.43;99673.63;5001789;28;45482;-52
2022/11/18 10:47:18;;;;;;;;;5.50;5.00;;;;;19.70;51.44;99669.22;5019617;28;45296;-51
2022/11/18 10:49:43;;;;;;;;;4.25;3.75;;;;;19.55;51.64;99683.13;5019354;28;45248;-52
2022/11/18 10:52:10;;;;;;;;;4.00;4.00;;;;;19.43;51.72;99684.50;5019626;28;45231;-51
2022/11/18 10:54:36;;;;;;;;;3.25;3.00;;;;;19.36;51.40;99683.03;5019214;28;45464;-48
2022/11/18 10:57:17;;;;;;;;;4.50;4.00;;;;;19.27;51.95;99680.81;5017957;28;45953;-51
2022/11/18 10:59:43;;;;;;;;;3.00;2.75;;;;;19.20;51.96;99683.72;5017240;28;46121;-48
2022/11/18 11:02:29;;;;;;;;;5.00;2.75;;;;;19.13;51.80;99682.28;5019502;28;45220;-51
2022/11/18 11:04:55;;;;;;;;;2.00;2.00;;;;;19.07;51.23;99682.53;5006819;28;45477;-49
2022/11/18 11:07:31;;;;;;;;;2.50;2.25;;;;;19.01;51.35;99681.91;5001305;28;46319;-51
2022/11/18 11:10:08;;;;;;;;;3.50;2.00;;;;;18.96;51.78;99683.91;5018106;28;45448;-48
2022/11/18 11:12:55;;;;;;;;;3.50;0.75;;;;;18.91;51.50;99689.38;5018988;28;45352;-46
2022/11/18 11:15:32;;;;;;;;;3.25;3.25;;;;;18.92;51.34;99693.72;5017554;28;45469;-49
2022/11/18 11:20:44;;;;;;;;;2.00;2.00;;;;;19.15;54.14;99685.69;5018011;28;45526;-48
2022/11/18 11:23:10;;;;;;;;;4.00;2.75;;;;;19.34;54.50;99690.19;5018972;28;45309;-48
2022/11/18 11:25:58;;;;;;;;;5.75;2.75;;;;;19.53;54.47;99685.81;5017837;28;45532;-47
2022/11/18 11:28:45;;;;;;;;;3.00;3.00;;;;;19.70;54.29;99682.44;5019221;28;45494;-51
2022/11/18 11:31:14;;;;;;;;;2.25;2.00;;;;;19.86;54.24;99682.59;5022750;28;45338;-49
2022/11/18 11:34:05;;;;;;;;;5.50;4.00;;;;;19.97;54.43;99675.03;5020884;28;45304;-52
2022/11/18 11:36:51;;;;;;;;;4.25;3.00;;;;;20.12;54.26;99673.47;5028939;28;45384;-49
2022/11/18 11:40:06;;;;;;;;;2.75;2.75;;;;;20.25;54.25;99675.47;5007151;28;48181;-52
2022/11/18 11:43:00;;;;;;;;;2.00;2.00;;;;;20.33;54.21;99678.63;5039586;28;45425;-47
2022/11/18 11:45:46;;;;;;;;;5.00;4.00;;;;;20.42;54.08;99677.31;4991384;28;45488;-51
2022/11/18 11:48:24;;;;;;;;;4.00;3.75;;;;;20.49;54.08;99680.53;5024575;28;45301;-48
2022/11/18 11:50:54;;;;;;;;;4.00;3.50;;;;;20.55;54.16;99678.44;5022399;28;45335;-49
2022/11/18 11:53:41;;;;;;;;;3.25;3.00;;;;;20.59;54.06;99674.75;5004805;28;45304;-48
2022/11/18 11:56:11;;;;;;;;;6.00;2.75;;;;;20.67;54.20;99676.13;5022137;28;45480;-49
2022/11/18 11:59:01;;;;;;;;;6.00;4.00;;;;;20.72;54.10;99682.94;5020821;28;45380;-48
2022/11/18 12:01:31;;;;;;;;;6.50;3.25;;;;;20.77;54.23;99680.06;5022031;28;46394;-49